sensor_id;sensor_type;location;lat;lon;timestamp;pressure;altitude;pressure_sealevel;temperature;humidity
5872;BME280;2962;51.312;7.378;2023-05-07T00:01:02;97529.91;;;12.05;100.00
5872;BME280;2962;51.312;7.378;2023-05-07T00:03:27;97542.81;;;12.08;100.00
5872;BME280;2962;51.312;7.378;2023-05-07T00:05:52;97509.16;;;11.97;100.00
5872;BME280;2962;51.312;7.378;2023-05-07T00:08:18;97525.22;;;12.06;100.00
5872;BME280;2962;51.312;7.378;2023-05-07T00:10:44;97520.19;;;12.08;100.00
5872;BME280;2962;51.312;7.378;2023-05-07T00:13:09;97519.41;;;12.07;100.00
5872;BME280;2962;51.312;7.378;2023-05-07T00:15:35;97506.81;;;11.99;100.00
5872;BME280;2962;51.312;7.378;2023-05-07T00:18:00;97523.31;;;12.10;100.00
5872;BME280;2962;51.312;7.378;2023-05-07T00:20:25;97530.34;;;12.07;100.00
5872;BME280;2962;51.312;7.378;2023-05-07T00:22:51;97528.03;;;12.13;100.00
5872;BME280;2962;51.312;7.378;2023-05-07T00:25:16;97524.88;;;12.07;100.00
5872;BME280;2962;51.312;7.378;2023-05-07T00:27:41;97529.97;;;12.12;100.00
5872;BME280;2962;51.312;7.378;2023-05-07T00:30:08;97526.47;;;12.12;100.00
5872;BME280;2962;51.312;7.378;2023-05-07T00:32:33;97520.56;;;12.06;100.00
5872;BME280;2962;51.312;7.378;2023-05-07T00:34:59;97524.53;;;12.12;100.00
5872;BME280;2962;51.312;7.378;2023-05-07T00:37:24;97522.56;;;12.13;100.00
5872;BME280;2962;51.312;7.378;2023-05-07T00:39:50;97512.38;;;12.10;100.00
5872;BME280;2962;51.312;7.378;2023-05-07T00:42:15;97501.38;;;11.99;100.00
5872;BME280;2962;51.312;7.378;2023-05-07T00:44:41;97515.16;;;12.13;100.00
5872;BME280;2962;51.312;7.378;2023-05-07T00:47:06;97510.41;;;12.07;100.00
5872;BME280;2962;51.312;7.378;2023-05-07T00:49:42;97508.09;;;12.09;100.00
5872;BME280;2962;51.312;7.378;2023-05-07T00:52:11;97524.53;;;12.12;100.00
5872;BME280;2962;51.312;7.378;2023-05-07T00:54:38;97517.50;;;12.11;100.00
5872;BME280;2962;51.312;7.378;2023-05-07T00:57:05;97512.78;;;12.08;100.00
5872;BME280;2962;51.312;7.378;2023-05-07T00:59:32;97503.00;;;12.04;100.00
5872;BME280;2962;51.312;7.378;2023-05-07T01:01:58;97510.13;;;12.15;100.00
5872;BME280;2962;51.312;7.378;2023-05-07T01:04:24;97488.22;;;12.12;100.00
5872;BME280;2962;51.312;7.378;2023-05-07T01:06:50;97500.41;;;12.21;100.00
5872;BME280;2962;51.312;7.378;2023-05-07T01:09:16;97480.00;;;12.08;100.00
5872;BME280;2962;51.312;7.378;2023-05-07T01:11:43;97497.69;;;12.25;100.00
5872;BME280;2962;51.312;7.378;2023-05-07T01:14:09;97485.53;;;12.15;100.00
5872;BME280;2962;51.312;7.378;2023-05-07T01:16:34;97489.81;;;12.16;100.00
5872;BME280;2962;51.312;7.378;2023-05-07T01:19:00;97486.34;;;12.19;100.00
5872;BME280;2962;51.312;7.378;2023-05-07T01:21:26;97486.66;;;12.11;100.00
5872;BME280;2962;51.312;7.378;2023-05-07T01:23:53;97494.13;;;12.17;100.00
5872;BME280;2962;51.312;7.378;2023-05-07T01:26:20;97495.69;;;12.15;100.00
5872;BME280;2962;51.312;7.378;2023-05-07T01:28:47;97499.56;;;12.14;100.00
5872;BME280;2962;51.312;7.378;2023-05-07T01:31:13;97491.28;;;12.07;100.00
5872;BME280;2962;51.312;7.378;2023-05-07T01:33:40;97488.16;;;12.05;100.00
5872;BME280;2962;51.312;7.378;2023-05-07T01:36:07;97493.28;;;12.10;100.00
5872;BME280;2962;51.312;7.378;2023-05-07T01:38:34;97494.84;;;12.07;100.00
5872;BME280;2962;51.312;7.378;2023-05-07T01:41:01;97498.41;;;12.15;100.00
5872;BME280;2962;51.312;7.378;2023-05-07T01:43:28;97496.47;;;12.15;100.00
5872;BME280;2962;51.312;7.378;2023-05-07T01:45:55;97485.13;;;12.13;100.00
5872;BME280;2962;51.312;7.378;2023-05-07T01:48:20;97493.75;;;12.19;100.00
5872;BME280;2962;51.312;7.378;2023-05-07T01:50:47;97494.16;;;12.21;100.00
5872;BME280;2962;51.312;7.378;2023-05-07T01:53:13;97495.31;;;12.20;100.00
5872;BME280;2962;51.312;7.378;2023-05-07T01:55:38;97498.44;;;12.18;100.00
5872;BME280;2962;51.312;7.378;2023-05-07T01:58:03;97489.03;;;12.16;100.00
5872;BME280;2962;51.312;7.378;2023-05-07T02:00:29;97481.22;;;12.11;100.00
5872;BME280;2962;51.312;7.378;2023-05-07T02:02:55;97467.06;;;12.02;100.00
5872;BME280;2962;51.312;7.378;2023-05-07T02:05:20;97483.50;;;12.05;100.00
5872;BME280;2962;51.312;7.378;2023-05-07T02:07:45;97478.78;;;12.02;100.00
5872;BME280;2962;51.312;7.378;2023-05-07T02:10:11;97488.94;;;12.05;100.00
5872;BME280;2962;51.312;7.378;2023-05-07T02:12:36;97489.34;;;12.04;100.00
5872;BME280;2962;51.312;7.378;2023-05-07T02:15:01;97486.56;;;12.00;100.00
5872;BME280;2962;51.312;7.378;2023-05-07T02:17:27;97490.13;;;12.04;100.00
5872;BME280;2962;51.312;7.378;2023-05-07T02:19:52;97488.91;;;12.02;100.00
5872;BME280;2962;51.312;7.378;2023-05-07T02:22:18;97497.09;;;12.02;100.00
5872;BME280;2962;51.312;7.378;2023-05-07T02:24:43;97484.56;;;11.93;100.00
5872;BME280;2962;51.312;7.378;2023-05-07T02:27:09;97492.34;;;11.95;100.00
5872;BME280;2962;51.312;7.378;2023-05-07T02:29:34;97486.81;;;11.84;100.00
5872;BME280;2962;51.312;7.378;2023-05-07T02:32:00;97483.34;;;11.91;100.00
5872;BME280;2962;51.312;7.378;2023-05-07T02:34:25;97482.44;;;11.80;100.00
5872;BME280;2962;51.312;7.378;2023-05-07T02:36:50;97496.16;;;11.83;100.00
5872;BME280;2962;51.312;7.378;2023-05-07T02:39:16;97489.84;;;11.79;100.00
5872;BME280;2962;51.312;7.378;2023-05-07T02:41:41;97487.88;;;11.80;100.00
5872;BME280;2962;51.312;7.378;2023-05-07T02:44:07;97480.13;;;11.82;100.00
5872;BME280;2962;51.312;7.378;2023-05-07T02:46:32;97483.28;;;11.84;100.00
5872;BME280;2962;51.312;7.378;2023-05-07T02:48:57;97462.13;;;11.73;100.00
5872;BME280;2962;51.312;7.378;2023-05-07T02:51:23;97480.13;;;11.82;100.00
5872;BME280;2962;51.312;7.378;2023-05-07T02:53:48;97483.97;;;11.77;100.00
5872;BME280;2962;51.312;7.378;2023-05-07T02:56:13;97472.56;;;11.68;100.00
5872;BME280;2962;51.312;7.378;2023-05-07T02:58:39;97475.34;;;11.71;100.00
5872;BME280;2962;51.312;7.378;2023-05-07T03:01:05;97471.75;;;11.64;100.00
5872;BME280;2962;51.312;7.378;2023-05-07T03:03:30;97468.66;;;11.65;100.00
5872;BME280;2962;51.312;7.378;2023-05-07T03:05:55;97469.06;;;11.67;100.00
5872;BME280;2962;51.312;7.378;2023-05-07T03:08:21;97460.78;;;11.60;100.00
5872;BME280;2962;51.312;7.378;2023-05-07T03:10:46;97464.34;;;11.61;100.00
5872;BME280;2962;51.312;7.378;2023-05-07T03:13:12;97466.25;;;11.60;100.00
5872;BME280;2962;51.312;7.378;2023-05-07T03:15:37;97464.69;;;11.59;100.00
5872;BME280;2962;51.312;7.378;2023-05-07T03:18:02;97481.56;;;11.68;100.00
5872;BME280;2962;51.312;7.378;2023-05-07T03:20:28;97477.66;;;11.69;100.00
5872;BME280;2962;51.312;7.378;2023-05-07T03:22:53;97474.22;;;11.76;100.00
5872;BME280;2962;51.312;7.378;2023-05-07T03:25:18;97475.34;;;11.71;100.00
5872;BME280;2962;51.312;7.378;2023-05-07T03:27:44;97458.56;;;11.69;100.00
5872;BME280;2962;51.312;7.378;2023-05-07T03:30:10;97479.41;;;11.85;100.00
5872;BME280;2962;51.312;7.378;2023-05-07T03:32:35;97475.50;;;11.86;100.00
5872;BME280;2962;51.312;7.378;2023-05-07T03:35:01;97475.94;;;11.88;100.00
5872;BME280;2962;51.312;7.378;2023-05-07T03:37:27;97468.50;;;11.85;100.00
5872;BME280;2962;51.312;7.378;2023-05-07T03:39:52;97468.50;;;11.85;100.00
5872;BME280;2962;51.312;7.378;2023-05-07T03:42:18;97459.91;;;11.86;100.00
5872;BME280;2962;51.312;7.378;2023-05-07T03:44:43;97471.31;;;11.95;100.00
5872;BME280;2962;51.312;7.378;2023-05-07T03:47:08;97462.28;;;11.91;100.00
5872;BME280;2962;51.312;7.378;2023-05-07T03:49:35;97470.16;;;11.96;100.00
5872;BME280;2962;51.312;7.378;2023-05-07T03:52:00;97474.06;;;11.99;100.00
5872;BME280;2962;51.312;7.378;2023-05-07T03:54:26;97465.44;;;11.93;100.00
5872;BME280;2962;51.312;7.378;2023-05-07T03:56:51;97468.59;;;11.99;100.00
5872;BME280;2962;51.312;7.378;2023-05-07T03:59:16;97476.41;;;11.97;100.00
5872;BME280;2962;51.312;7.378;2023-05-07T04:01:41;97477.97;;;11.98;100.00
5872;BME280;2962;51.312;7.378;2023-05-07T04:04:07;97473.66;;;11.97;100.00
5872;BME280;2962;51.312;7.378;2023-05-07T04:06:32;97470.94;;;11.97;100.00
5872;BME280;2962;51.312;7.378;2023-05-07T04:08:57;97481.81;;;11.93;100.00
5872;BME280;2962;51.312;7.378;2023-05-07T04:11:23;97483.38;;;11.94;100.00
5872;BME280;2962;51.312;7.378;2023-05-07T04:13:48;97485.34;;;11.94;100.00
5872;BME280;2962;51.312;7.378;2023-05-07T04:16:13;97486.50;;;11.93;100.00
5872;BME280;2962;51.312;7.378;2023-05-07T04:18:39;97487.28;;;11.93;100.00
5872;BME280;2962;51.312;7.378;2023-05-07T04:21:04;97485.69;;;11.89;100.00
5872;BME280;2962;51.312;7.378;2023-05-07T04:23:30;97482.53;;;11.87;100.00
5872;BME280;2962;51.312;7.378;2023-05-07T04:25:55;97482.50;;;11.83;100.00
5872;BME280;2962;51.312;7.378;2023-05-07T04:28:21;97494.28;;;11.91;100.00
5872;BME280;2962;51.312;7.378;2023-05-07T04:30:46;97482.94;;;11.89;100.00
5872;BME280;2962;51.312;7.378;2023-05-07T04:33:11;97486.94;;;11.98;100.00
5872;BME280;2962;51.312;7.378;2023-05-07T04:35:37;97477.88;;;11.91;100.00
5872;BME280;2962;51.312;7.378;2023-05-07T04:38:02;97488.53;;;12.00;100.00
5872;BME280;2962;51.312;7.378;2023-05-07T04:40:27;97486.56;;;12.00;100.00
5872;BME280;2962;51.312;7.378;2023-05-07T04:42:52;97498.34;;;12.08;100.00
5872;BME280;2962;51.312;7.378;2023-05-07T04:45:18;97492.13;;;12.11;100.00
5872;BME280;2962;51.312;7.378;2023-05-07T04:47:43;97494.88;;;12.14;100.00
5872;BME280;2962;51.312;7.378;2023-05-07T04:50:09;97496.88;;;12.21;100.00
5872;BME280;2962;51.312;7.378;2023-05-07T04:52:36;97501.72;;;12.38;100.00
5872;BME280;2962;51.312;7.378;2023-05-07T04:55:01;97503.69;;;12.41;100.00
5872;BME280;2962;51.312;7.378;2023-05-07T04:57:27;97504.09;;;12.43;100.00
5872;BME280;2962;51.312;7.378;2023-05-07T04:59:53;97498.25;;;12.45;100.00
5872;BME280;2962;51.312;7.378;2023-05-07T05:02:19;97493.59;;;12.53;100.00
5872;BME280;2962;51.312;7.378;2023-05-07T05:04:44;97495.63;;;12.59;100.00
5872;BME280;2962;51.312;7.378;2023-05-07T05:07:10;97501.97;;;12.74;100.00
5872;BME280;2962;51.312;7.378;2023-05-07T05:09:35;97498.47;;;12.77;100.00
5872;BME280;2962;51.312;7.378;2023-05-07T05:12:00;97497.75;;;12.84;100.00
5872;BME280;2962;51.312;7.378;2023-05-07T05:14:26;97496.97;;;12.90;100.00
5872;BME280;2962;51.312;7.378;2023-05-07T05:16:51;97495.88;;;13.06;100.00
5872;BME280;2962;51.312;7.378;2023-05-07T05:19:16;97492.38;;;13.05;100.00
5872;BME280;2962;51.312;7.378;2023-05-07T05:21:41;97502.94;;;13.07;100.00
5872;BME280;2962;51.312;7.378;2023-05-07T05:24:07;97502.16;;;13.10;100.00
5872;BME280;2962;51.312;7.378;2023-05-07T05:26:32;97507.28;;;13.15;100.00
5872;BME280;2962;51.312;7.378;2023-05-07T05:28:57;97502.94;;;13.10;100.00
5872;BME280;2962;51.312;7.378;2023-05-07T05:31:23;97499.44;;;13.13;100.00
5872;BME280;2962;51.312;7.378;2023-05-07T05:33:48;97505.41;;;13.30;100.00
5872;BME280;2962;51.312;7.378;2023-05-07T05:36:13;97508.59;;;13.39;100.00
5872;BME280;2962;51.312;7.378;2023-05-07T05:38:39;97502.75;;;13.48;100.00
5872;BME280;2962;51.312;7.378;2023-05-07T05:41:05;97512.16;;;13.50;100.00
5872;BME280;2962;51.312;7.378;2023-05-07T05:43:30;97508.66;;;13.57;100.00
5872;BME280;2962;51.312;7.378;2023-05-07T05:45:56;97502.41;;;13.67;100.00
5872;BME280;2962;51.312;7.378;2023-05-07T05:48:21;97508.69;;;13.71;100.00
5872;BME280;2962;51.312;7.378;2023-05-07T05:50:47;97506.75;;;13.75;100.00
5872;BME280;2962;51.312;7.378;2023-05-07T05:53:13;97516.53;;;13.87;100.00
5872;BME280;2962;51.312;7.378;2023-05-07T05:55:38;97524.03;;;14.15;100.00
5872;BME280;2962;51.312;7.378;2023-05-07T05:58:03;97522.09;;;14.23;100.00
5872;BME280;2962;51.312;7.378;2023-05-07T06:00:29;97506.44;;;14.27;100.00
5872;BME280;2962;51.312;7.378;2023-05-07T06:02:55;97509.97;;;14.41;100.00
5872;BME280;2962;51.312;7.378;2023-05-07T06:05:20;97523.31;;;14.64;100.00
5872;BME280;2962;51.312;7.378;2023-05-07T06:07:45;97513.88;;;14.80;100.00
5872;BME280;2962;51.312;7.378;2023-05-07T06:10:11;97518.97;;;14.81;100.00
5872;BME280;2962;51.312;7.378;2023-05-07T06:12:36;97513.47;;;14.88;100.00
5872;BME280;2962;51.312;7.378;2023-05-07T06:15:01;97520.50;;;14.89;100.00
5872;BME280;2962;51.312;7.378;2023-05-07T06:17:27;97517.34;;;14.95;100.00
5872;BME280;2962;51.312;7.378;2023-05-07T06:19:52;97525.97;;;15.11;100.00
5872;BME280;2962;51.312;7.378;2023-05-07T06:22:18;97532.59;;;15.21;100.00
5872;BME280;2962;51.312;7.378;2023-05-07T06:24:43;97523.56;;;15.31;100.00
5872;BME280;2962;51.312;7.378;2023-05-07T06:27:08;97530.56;;;15.46;100.00
5872;BME280;2962;51.312;7.378;2023-05-07T06:29:34;97530.53;;;15.53;100.00
5872;BME280;2962;51.312;7.378;2023-05-07T06:32:06;97538.66;;;15.82;100.00
5872;BME280;2962;51.312;7.378;2023-05-07T06:34:32;97539.41;;;15.86;100.00
5872;BME280;2962;51.312;7.378;2023-05-07T06:36:58;97531.66;;;15.70;100.00
5872;BME280;2962;51.312;7.378;2023-05-07T06:39:23;97536.69;;;15.82;100.00
5872;BME280;2962;51.312;7.378;2023-05-07T06:41:49;97530.81;;;15.84;100.00
5872;BME280;2962;51.312;7.378;2023-05-07T06:44:14;97538.16;;;16.01;100.00
5872;BME280;2962;51.312;7.378;2023-05-07T06:46:40;97538.94;;;16.02;100.00
5872;BME280;2962;51.312;7.378;2023-05-07T06:49:06;97530.19;;;16.18;100.00
5872;BME280;2962;51.312;7.378;2023-05-07T06:51:31;97541.59;;;16.16;100.00
5872;BME280;2962;51.312;7.378;2023-05-07T06:53:56;97543.72;;;16.50;100.00
5872;BME280;2962;51.312;7.378;2023-05-07T06:56:22;97539.31;;;16.59;100.00
5872;BME280;2962;51.312;7.378;2023-05-07T06:58:47;97536.75;;;16.38;100.00
5872;BME280;2962;51.312;7.378;2023-05-07T07:01:13;97535.38;;;16.60;100.00
5872;BME280;2962;51.312;7.378;2023-05-07T07:03:38;97539.81;;;16.44;100.00
5872;BME280;2962;51.312;7.378;2023-05-07T07:06:03;97538.22;;;16.50;100.00
5872;BME280;2962;51.312;7.378;2023-05-07T07:08:29;97540.72;;;16.82;100.00
5872;BME280;2962;51.312;7.378;2023-05-07T07:10:54;97524.59;;;16.84;100.00
5872;BME280;2962;51.312;7.378;2023-05-07T07:13:19;97528.78;;;16.99;100.00
5872;BME280;2962;51.312;7.378;2023-05-07T07:15:45;97533.22;;;17.24;100.00
5872;BME280;2962;51.312;7.378;2023-05-07T07:18:10;97536.63;;;17.35;100.00
5872;BME280;2962;51.312;7.378;2023-05-07T07:20:35;97530.88;;;17.56;100.00
5872;BME280;2962;51.312;7.378;2023-05-07T07:23:01;97542.50;;;17.71;100.00
5872;BME280;2962;51.312;7.378;2023-05-07T07:25:26;97527.19;;;17.67;100.00
5872;BME280;2962;51.312;7.378;2023-05-07T07:27:51;97535.31;;;17.81;100.00
5872;BME280;2962;51.312;7.378;2023-05-07T07:30:16;97511.34;;;17.78;100.00
5872;BME280;2962;51.312;7.378;2023-05-07T07:32:42;97537.16;;;17.91;100.00
5872;BME280;2962;51.312;7.378;2023-05-07T07:35:08;97532.63;;;18.04;100.00
5872;BME280;2962;51.312;7.378;2023-05-07T07:37:34;97526.00;;;17.68;100.00
5872;BME280;2962;51.312;7.378;2023-05-07T07:39:59;97548.75;;;18.06;100.00
5872;BME280;2962;51.312;7.378;2023-05-07T07:42:25;97539.31;;;18.34;100.00
5872;BME280;2962;51.312;7.378;2023-05-07T07:44:50;97533.47;;;18.28;100.00
5872;BME280;2962;51.312;7.378;2023-05-07T07:47:15;97532.47;;;18.66;100.00
5872;BME280;2962;51.312;7.378;2023-05-07T07:49:40;97536.59;;;18.81;100.00
5872;BME280;2962;51.312;7.378;2023-05-07T07:52:06;97542.69;;;18.69;100.00
5872;BME280;2962;51.312;7.378;2023-05-07T07:54:31;97528.00;;;18.75;100.00
5872;BME280;2962;51.312;7.378;2023-05-07T07:56:57;97544.84;;;18.58;100.00
5872;BME280;2962;51.312;7.378;2023-05-07T07:59:23;97542.47;;;18.56;100.00
5872;BME280;2962;51.312;7.378;2023-05-07T08:01:48;97551.03;;;18.65;100.00
5872;BME280;2962;51.312;7.378;2023-05-07T08:04:15;97550.03;;;18.79;100.00
5872;BME280;2962;51.312;7.378;2023-05-07T08:06:41;97553.63;;;18.99;100.00
5872;BME280;2962;51.312;7.378;2023-05-07T08:09:07;97549.16;;;19.06;100.00
5872;BME280;2962;51.312;7.378;2023-05-07T08:11:33;97544.59;;;19.19;100.00
5872;BME280;2962;51.312;7.378;2023-05-07T08:13:58;97561.72;;;19.73;100.00
5872;BME280;2962;51.312;7.378;2023-05-07T08:16:24;97560.41;;;19.98;100.00
5872;BME280;2962;51.312;7.378;2023-05-07T08:18:50;97551.28;;;20.17;100.00
5872;BME280;2962;51.312;7.378;2023-05-07T08:21:15;97559.31;;;20.12;100.00
5872;BME280;2962;51.312;7.378;2023-05-07T08:23:40;97547.25;;;20.22;100.00
5872;BME280;2962;51.312;7.378;2023-05-07T08:26:07;97557.13;;;20.39;100.00
5872;BME280;2962;51.312;7.378;2023-05-07T08:28:32;97558.94;;;20.46;100.00
5872;BME280;2962;51.312;7.378;2023-05-07T08:30:58;97550.06;;;20.71;100.00
5872;BME280;2962;51.312;7.378;2023-05-07T08:33:25;97557.13;;;20.39;100.00
5872;BME280;2962;51.312;7.378;2023-05-07T08:35:50;97558.47;;;20.84;100.00
5872;BME280;2962;51.312;7.378;2023-05-07T08:38:16;97545.03;;;20.82;100.00
5872;BME280;2962;51.312;7.378;2023-05-07T08:40:41;97559.41;;;20.77;100.00
5872;BME280;2962;51.312;7.378;2023-05-07T08:43:07;97554.50;;;20.48;100.00
5872;BME280;2962;51.312;7.378;2023-05-07T08:45:33;97571.56;;;20.31;100.00
5872;BME280;2962;51.312;7.378;2023-05-07T08:48:02;97563.81;;;19.26;100.00
5872;BME280;2962;51.312;7.378;2023-05-07T08:50:28;97568.09;;;18.84;100.00
5872;BME280;2962;51.312;7.378;2023-05-07T08:52:53;97566.69;;;18.45;100.00
5872;BME280;2962;51.312;7.378;2023-05-07T08:55:18;97566.81;;;18.65;100.00
5872;BME280;2962;51.312;7.378;2023-05-07T08:57:44;97564.38;;;18.67;100.00
5872;BME280;2962;51.312;7.378;2023-05-07T09:00:10;97574.09;;;18.51;100.00
5872;BME280;2962;51.312;7.378;2023-05-07T09:02:36;97563.59;;;18.43;100.00
5872;BME280;2962;51.312;7.378;2023-05-07T09:05:02;97569.78;;;18.77;100.00
5872;BME280;2962;51.312;7.378;2023-05-07T09:07:28;97565.94;;;18.95;100.00
5872;BME280;2962;51.312;7.378;2023-05-07T09:09:53;97566.34;;;18.93;100.00
5872;BME280;2962;51.312;7.378;2023-05-07T09:12:20;97557.91;;;19.24;100.00
5872;BME280;2962;51.312;7.378;2023-05-07T09:14:46;97560.47;;;19.15;100.00
5872;BME280;2962;51.312;7.378;2023-05-07T09:17:12;97551.06;;;18.89;100.00
5872;BME280;2962;51.312;7.378;2023-05-07T09:19:37;97559.41;;;18.58;100.00
5872;BME280;2962;51.312;7.378;2023-05-07T09:22:04;97565.81;;;18.51;100.00
5872;BME280;2962;51.312;7.378;2023-05-07T09:24:31;97560.66;;;18.81;100.00
5872;BME280;2962;51.312;7.378;2023-05-07T09:27:01;97564.88;;;19.32;100.00
5872;BME280;2962;51.312;7.378;2023-05-07T09:29:27;97555.03;;;19.51;100.00
5872;BME280;2962;51.312;7.378;2023-05-07T09:31:55;97554.41;;;19.63;100.00
5872;BME280;2962;51.312;7.378;2023-05-07T09:34:20;97559.34;;;20.28;100.00
5872;BME280;2962;51.312;7.378;2023-05-07T09:36:46;97550.81;;;20.39;100.00
5872;BME280;2962;51.312;7.378;2023-05-07T09:39:12;97550.13;;;21.00;100.00
5872;BME280;2962;51.312;7.378;2023-05-07T09:41:45;97550.94;;;20.84;100.00
5872;BME280;2962;51.312;7.378;2023-05-07T09:44:11;97558.03;;;20.69;100.00
5872;BME280;2962;51.312;7.378;2023-05-07T09:46:38;97555.22;;;21.18;100.00
5872;BME280;2962;51.312;7.378;2023-05-07T09:49:06;97554.03;;;20.86;100.00
5872;BME280;2962;51.312;7.378;2023-05-07T09:51:43;97554.50;;;20.16;100.00
5872;BME280;2962;51.312;7.378;2023-05-07T09:54:11;97567.47;;;20.19;100.00
5872;BME280;2962;51.312;7.378;2023-05-07T09:56:37;97562.03;;;20.32;100.00
5872;BME280;2962;51.312;7.378;2023-05-07T09:59:05;97560.56;;;20.27;100.00
5872;BME280;2962;51.312;7.378;2023-05-07T10:01:31;97560.66;;;20.23;100.00
5872;BME280;2962;51.312;7.378;2023-05-07T10:03:58;97564.56;;;20.42;100.00
5872;BME280;2962;51.312;7.378;2023-05-07T10:06:24;97563.47;;;20.72;100.00
5872;BME280;2962;51.312;7.378;2023-05-07T10:08:51;97557.47;;;20.90;100.00
5872;BME280;2962;51.312;7.378;2023-05-07T10:11:17;97566.72;;;21.62;100.00
5872;BME280;2962;51.312;7.378;2023-05-07T10:13:43;97553.75;;;22.26;100.00
5872;BME280;2962;51.312;7.378;2023-05-07T10:16:08;97557.75;;;22.51;100.00
5872;BME280;2962;51.312;7.378;2023-05-07T10:18:34;97550.53;;;22.28;100.00
5872;BME280;2962;51.312;7.378;2023-05-07T10:21:08;97548.97;;;22.27;100.00
5872;BME280;2962;51.312;7.378;2023-05-07T10:23:36;97556.72;;;22.96;100.00
5872;BME280;2962;51.312;7.378;2023-05-07T10:26:04;97553.47;;;22.84;100.00
5872;BME280;2962;51.312;7.378;2023-05-07T10:28:32;97561.09;;;22.46;100.00
5872;BME280;2962;51.312;7.378;2023-05-07T10:33:45;97555.25;;;22.78;100.00
5872;BME280;2962;51.312;7.378;2023-05-07T10:36:12;97550.50;;;22.92;100.00
5872;BME280;2962;51.312;7.378;2023-05-07T10:38:37;97552.94;;;23.24;100.00
5872;BME280;2962;51.312;7.378;2023-05-07T10:41:04;97549.03;;;23.00;100.00
5872;BME280;2962;51.312;7.378;2023-05-07T10:43:41;97553.84;;;22.74;100.00
5872;BME280;2962;51.312;7.378;2023-05-07T10:46:10;97568.53;;;22.49;100.00
5872;BME280;2962;51.312;7.378;2023-05-07T10:51:23;97560.28;;;22.71;100.00
5872;BME280;2962;51.312;7.378;2023-05-07T10:56:34;97558.34;;;23.06;100.00
5872;BME280;2962;51.312;7.378;2023-05-07T11:02:02;97554.81;;;23.27;100.00
5872;BME280;2962;51.312;7.378;2023-05-07T11:04:29;97560.03;;;23.38;100.00
5872;BME280;2962;51.312;7.378;2023-05-07T11:12:16;97555.19;;;22.69;100.00
5872;BME280;2962;51.312;7.378;2023-05-07T11:17:08;97547.97;;;22.72;100.00
5872;BME280;2962;51.312;7.378;2023-05-07T11:19:55;97558.53;;;22.64;100.00
5872;BME280;2962;51.312;7.378;2023-05-07T11:24:59;97548.63;;;22.63;100.00
5872;BME280;2962;51.312;7.378;2023-05-07T11:27:28;97558.22;;;23.09;100.00
5872;BME280;2962;51.312;7.378;2023-05-07T11:29:54;97552.19;;;23.46;100.00
5872;BME280;2962;51.312;7.378;2023-05-07T11:32:23;97552.28;;;23.99;100.00
5872;BME280;2962;51.312;7.378;2023-05-07T11:34:52;97547.94;;;24.69;100.00
5872;BME280;2962;51.312;7.378;2023-05-07T11:37:19;97551.75;;;25.21;100.00
5872;BME280;2962;51.312;7.378;2023-05-07T11:39:44;97540.78;;;25.18;100.00
5872;BME280;2962;51.312;7.378;2023-05-07T11:42:27;97538.28;;;26.26;100.00
5872;BME280;2962;51.312;7.378;2023-05-07T11:44:53;97540.25;;;25.93;100.00
5872;BME280;2962;51.312;7.378;2023-05-07T11:47:19;97530.97;;;26.71;100.00
5872;BME280;2962;51.312;7.378;2023-05-07T11:49:48;97537.84;;;27.48;100.00
5872;BME280;2962;51.312;7.378;2023-05-07T11:52:15;97535.56;;;26.74;100.00
5872;BME280;2962;51.312;7.378;2023-05-07T11:54:41;97532.50;;;26.96;100.00
5872;BME280;2962;51.312;7.378;2023-05-07T11:57:06;97542.34;;;26.59;100.00
5872;BME280;2962;51.312;7.378;2023-05-07T11:59:56;97546.34;;;24.50;100.00
5872;BME280;2962;51.312;7.378;2023-05-07T12:02:22;97545.78;;;23.14;100.00
5872;BME280;2962;51.312;7.378;2023-05-07T12:04:47;97545.63;;;22.06;100.00
5872;BME280;2962;51.312;7.378;2023-05-07T12:07:15;97546.16;;;21.47;100.00
5872;BME280;2962;51.312;7.378;2023-05-07T12:09:42;97559.38;;;20.93;100.00
5872;BME280;2962;51.312;7.378;2023-05-07T12:12:08;97555.91;;;20.40;100.00
5872;BME280;2962;51.312;7.378;2023-05-07T12:14:40;97569.38;;;20.22;100.00
5872;BME280;2962;51.312;7.378;2023-05-07T12:17:07;97560.31;;;19.65;100.00
5872;BME280;2962;51.312;7.378;2023-05-07T12:19:33;97577.34;;;19.40;100.00
5872;BME280;2962;51.312;7.378;2023-05-07T12:21:59;97571.25;;;19.06;100.00
5872;BME280;2962;51.312;7.378;2023-05-07T12:24:24;97581.72;;;18.67;100.00
5872;BME280;2962;51.312;7.378;2023-05-07T12:26:50;97580.66;;;18.34;100.00
5872;BME280;2962;51.312;7.378;2023-05-07T12:29:15;97601.47;;;17.81;100.00
5872;BME280;2962;51.312;7.378;2023-05-07T12:31:41;97590.59;;;17.29;100.00
5872;BME280;2962;51.312;7.378;2023-05-07T12:34:07;97610.56;;;16.99;100.00
5872;BME280;2962;51.312;7.378;2023-05-07T12:36:39;97614.31;;;16.64;100.00
5872;BME280;2962;51.312;7.378;2023-05-07T12:39:08;97624.75;;;16.34;100.00
5872;BME280;2962;51.312;7.378;2023-05-07T12:41:57;97637.81;;;16.16;100.00
5872;BME280;2962;51.312;7.378;2023-05-07T12:44:30;97644.91;;;16.06;100.00
5872;BME280;2962;51.312;7.378;2023-05-07T12:46:56;97646.97;;;15.88;100.00
5872;BME280;2962;51.312;7.378;2023-05-07T12:49:23;97646.97;;;15.81;100.00
5872;BME280;2962;51.312;7.378;2023-05-07T12:51:48;97659.97;;;15.70;100.00
5872;BME280;2962;51.312;7.378;2023-05-07T12:54:28;97659.59;;;15.46;100.00
5872;BME280;2962;51.312;7.378;2023-05-07T12:57:01;97657.28;;;15.05;100.00
5872;BME280;2962;51.312;7.378;2023-05-07T12:59:40;97671.41;;;14.93;100.00
5872;BME280;2962;51.312;7.378;2023-05-07T13:02:07;97675.31;;;14.74;100.00
5872;BME280;2962;51.312;7.378;2023-05-07T13:04:33;97680.78;;;14.67;100.00
5872;BME280;2962;51.312;7.378;2023-05-07T13:06:59;97685.84;;;14.54;100.00
5872;BME280;2962;51.312;7.378;2023-05-07T13:09:24;97693.31;;;14.64;100.00
5872;BME280;2962;51.312;7.378;2023-05-07T13:11:50;97686.56;;;14.44;100.00
5872;BME280;2962;51.312;7.378;2023-05-07T13:14:15;97692.84;;;14.37;100.00
5872;BME280;2962;51.312;7.378;2023-05-07T13:16:41;97695.56;;;14.34;100.00
5872;BME280;2962;51.312;7.378;2023-05-07T13:19:06;97692.31;;;14.07;100.00
5872;BME280;2962;51.312;7.378;2023-05-07T13:21:31;97677.00;;;13.99;100.00
5872;BME280;2962;51.312;7.378;2023-05-07T13:23:59;97664.94;;;14.07;100.00
5872;BME280;2962;51.312;7.378;2023-05-07T13:26:25;97672.41;;;14.21;100.00